Private Wetterstation Wechselburg
Wetterdaten: Woche 08.05.23 - 14.05.23 (KW19)
Datum Zeit Temp. +2m Bodentemp. Temp.+5cm Temp. Wind Windchill X Diff Temp. Feuchte +2m Feuchte +5cm Luftdruck Regen Wind Richtung Sonnenschein Taupunkt Windchill Windben
08.05.2023 00:00 7,2 C 14,5 C 6,7 C 7,0 C 6,5 C 0,0 C 83 % 69 % 1024,1 hPa 0,0 l/m 2,3 km/h (1 Bft) NO 0,00 h 4,5 C 6,5 C 2,8 km/h (1 Bft)
08.05.2023 01:00 6,4 C 14,5 C 5,6 C 6,1 C 5,4 C 0,0 C 84 % 71 % 1024,4 hPa 0,0 l/m 0,1 km/h (0 Bft) N 0,00 h 3,9 C 5,4 C 0,1 km/h (0 Bft)
08.05.2023 02:00 6,0 C 14,4 C 5,3 C 5,7 C 5,1 C 0,0 C 85 % 72 % 1024,5 hPa 0,0 l/m 0,0 km/h (0 Bft) N 0,00 h 3,7 C 5,1 C 0,0 km/h (0 Bft)
08.05.2023 03:00 5,7 C 14,3 C 5,1 C 5,4 C 4,8 C 0,0 C 86 % 72 % 1024,6 hPa 0,0 l/m 0,1 km/h (0 Bft) N 0,00 h 3,6 C 4,8 C 0,4 km/h (0 Bft)
08.05.2023 04:00 5,5 C 14,1 C 4,8 C 5,1 C 4,5 C 0,0 C 86 % 71 % 1024,6 hPa 0,0 l/m 0,0 km/h (0 Bft) N 0,00 h 3,4 C 4,5 C 0,0 km/h (0 Bft)
08.05.2023 05:00 5,0 C 13,9 C 4,6 C 4,7 C 3,9 C 0,0 C 86 % 70 % 1024,9 hPa 0,0 l/m 0,0 km/h (0 Bft) N 0,00 h 2,8 C 3,9 C 0,0 km/h (0 Bft)
08.05.2023 06:00 4,8 C 13,7 C 4,7 C 4,7 C 4,5 C 0,0 C 86 % 71 % 1025,2 hPa 0,0 l/m 0,0 km/h (0 Bft) N 0,00 h 2,7 C 4,5 C 0,0 km/h (0 Bft)
08.05.2023 07:00 7,0 C 13,5 C 7,9 C 12,3 C 12,3 C 5,3 C 86 % 67 % 1025,8 hPa 0,0 l/m 0,5 km/h (0 Bft) O-NO 0,83 h 4,8 C 12,3 C 1,6 km/h (1 Bft)
08.05.2023 08:00 9,6 C 13,5 C 9,7 C 15,1 C 15,1 C 5,6 C 77 % 60 % 1025,8 hPa 0,0 l/m 2,8 km/h (1 Bft) NO 1,00 h 5,6 C 15,1 C 5,1 km/h (1 Bft)
08.05.2023 09:00 10,8 C 13,5 C 10,6 C 14,0 C 14,0 C 3,2 C 71 % 55 % 1026,1 hPa 0,0 l/m 4,2 km/h (1 Bft) NO 0,33 h 5,8 C 14,0 C 6,8 km/h (2 Bft)
08.05.2023 10:00 12,5 C 13,7 C 12,8 C 15,5 C 15,5 C 3,0 C 66 % 50 % 1026,0 hPa 0,0 l/m 3,7 km/h (1 Bft) O-NO 0,33 h 6,2 C 15,5 C 6,8 km/h (2 Bft)
08.05.2023 11:00 13,6 C 13,9 C 13,9 C 15,7 C 15,7 C 2,0 C 59 % 44 % 1025,7 hPa 0,0 l/m 5,2 km/h (1 Bft) O-NO 0,00 h 5,7 C 15,7 C 7,1 km/h (2 Bft)
08.05.2023 12:00 15,6 C 14,0 C 16,4 C 18,8 C 18,8 C 3,2 C 52 % 40 % 1025,4 hPa 0,0 l/m 5,2 km/h (1 Bft) O-NO 0,50 h 5,7 C 18,8 C 7,1 km/h (2 Bft)
08.05.2023 13:00 17,5 C 14,2 C 18,8 C 22,1 C 22,1 C 4,6 C 44 % 35 % 1025,2 hPa 0,0 l/m 5,4 km/h (1 Bft) O-NO 1,00 h 5,1 C 22,1 C 7,3 km/h (2 Bft)
08.05.2023 14:00 17,8 C 14,5 C 19,7 C 21,6 C 21,6 C 3,8 C 39 % 31 % 1025,1 hPa 0,0 l/m 6,5 km/h (2 Bft) O-NO 1,00 h 3,8 C 21,6 C 8,5 km/h (2 Bft)
08.05.2023 15:00 17,8 C 14,7 C 18,0 C 20,9 C 20,9 C 3,1 C 38 % 29 % 1024,7 hPa 0,0 l/m 6,1 km/h (2 Bft) O-NO 0,50 h 3,4 C 20,9 C 8,6 km/h (2 Bft)
08.05.2023 16:00 18,2 C 15,0 C 18,4 C 21,9 C 21,9 C 3,7 C 37 % 28 % 1024,4 hPa 0,0 l/m 7,7 km/h (2 Bft) O-NO 0,83 h 3,4 C 21,9 C 10,3 km/h (2 Bft)
08.05.2023 17:00 18,1 C 15,2 C 18,0 C 19,9 C 19,9 C 1,9 C 36 % 27 % 1024,3 hPa 0,0 l/m 7,2 km/h (2 Bft) O-NO 0,00 h 2,9 C 19,9 C 8,8 km/h (2 Bft)
08.05.2023 18:00 17,0 C 15,4 C 16,3 C 17,7 C 17,7 C 0,7 C 39 % 29 % 1024,5 hPa 0,0 l/m 4,3 km/h (1 Bft) O-NO 0,00 h 2,9 C 17,7 C 4,8 km/h (1 Bft)
08.05.2023 19:00 16,2 C 15,5 C 15,1 C 16,8 C 16,8 C 0,6 C 43 % 34 % 1024,7 hPa 0,0 l/m 0,6 km/h (0 Bft) O-NO 0,17 h 3,7 C 16,8 C 1,5 km/h (1 Bft)
08.05.2023 20:00 15,3 C 15,5 C 14,4 C 16,3 C 16,2 C 1,0 C 48 % 37 % 1024,4 hPa 0,0 l/m 0,6 km/h (0 Bft) O-NO 0,50 h 4,4 C 16,2 C 1,2 km/h (1 Bft)
08.05.2023 21:00 13,3 C 15,6 C 11,9 C 13,0 C 12,3 C 0,0 C 61 % 48 % 1024,7 hPa 0,0 l/m 0,6 km/h (0 Bft) O-NO 0,00 h 5,8 C 12,3 C 0,8 km/h (0 Bft)
08.05.2023 22:00 10,8 C 15,6 C 8,9 C 10,3 C 9,3 C 0,0 C 69 % 56 % 1024,7 hPa 0,0 l/m 0,0 km/h (0 Bft) N 0,00 h 5,2 C 9,3 C 0,0 km/h (0 Bft)
08.05.2023 23:00 8,5 C 15,5 C 7,0 C 8,0 C 7,0 C 0,0 C 75 % 61 % 1024,7 hPa 0,0 l/m 0,0 km/h (0 Bft) N 0,00 h 4,4 C 7,0 C 0,0 km/h (0 Bft)
09.05.2023 00:00 6,9 C 15,5 C 5,6 C 6,3 C 5,3 C 0,0 C 79 % 65 % 1024,3 hPa 0,0 l/m 0,0 km/h (0 Bft) N 0,00 h 3,4 C 5,3 C 0,0 km/h (0 Bft)
09.05.2023 01:00 6,1 C 15,2 C 5,4 C 5,9 C 5,3 C 0,0 C 82 % 66 % 1024,1 hPa 0,0 l/m 0,0 km/h (0 Bft) N 0,00 h 3,3 C 5,3 C 0,0 km/h (0 Bft)
09.05.2023 02:00 6,2 C 15,0 C 5,0 C 5,9 C 5,3 C 0,0 C 80 % 64 % 1023,8 hPa 0,0 l/m 0,0 km/h (0 Bft) N 0,00 h 3,1 C 5,3 C 0,0 km/h (0 Bft)
09.05.2023 03:00 6,3 C 14,8 C 5,0 C 6,0 C 5,5 C 0,0 C 79 % 63 % 1023,5 hPa 0,0 l/m 0,0 km/h (0 Bft) N 0,00 h 2,8 C 5,5 C 0,0 km/h (0 Bft)
09.05.2023 04:00 6,7 C 14,5 C 5,1 C 6,5 C 6,0 C 0,0 C 76 % 60 % 1023,1 hPa 0,0 l/m 0,0 km/h (0 Bft) N 0,00 h 2,7 C 6,0 C 0,0 km/h (0 Bft)
09.05.2023 05:00 6,8 C 14,4 C 5,2 C 6,4 C 5,8 C 0,0 C 74 % 58 % 1022,9 hPa 0,0 l/m 0,0 km/h (0 Bft) N 0,00 h 2,4 C 5,8 C 0,0 km/h (0 Bft)
09.05.2023 06:00 7,1 C 14,2 C 6,1 C 6,9 C 6,6 C 0,0 C 72 % 57 % 1022,8 hPa 0,0 l/m 0,0 km/h (0 Bft) N 0,00 h 2,3 C 6,6 C 0,0 km/h (0 Bft)
09.05.2023 07:00 9,4 C 14,0 C 9,8 C 16,9 C 16,9 C 7,5 C 67 % 49 % 1022,7 hPa 0,0 l/m 0,0 km/h (0 Bft) N 0,92 h 3,6 C 16,9 C 0,5 km/h (0 Bft)
09.05.2023 08:00 12,3 C 14,0 C 11,1 C 20,5 C 20,5 C 8,2 C 59 % 46 % 1022,3 hPa 0,0 l/m 1,0 km/h (0 Bft) NO 1,00 h 4,6 C 20,5 C 2,8 km/h (1 Bft)
09.05.2023 09:00 14,4 C 14,1 C 12,7 C 20,2 C 20,2 C 5,8 C 53 % 44 % 1021,7 hPa 0,0 l/m 0,5 km/h (0 Bft) NO 1,00 h 4,9 C 20,2 C 0,7 km/h (0 Bft)
09.05.2023 10:00 15,5 C 14,3 C 14,9 C 20,2 C 20,2 C 4,7 C 52 % 41 % 1021,2 hPa 0,0 l/m 0,0 km/h (0 Bft) N 1,00 h 5,6 C 20,2 C 0,0 km/h (0 Bft)
09.05.2023 11:00 16,9 C 14,6 C 16,5 C 20,2 C 20,2 C 3,3 C 50 % 40 % 1020,4 hPa 0,0 l/m 0,0 km/h (0 Bft) N 0,50 h 6,5 C 20,2 C 0,0 km/h (0 Bft)
09.05.2023 12:00 18,1 C 14,8 C 18,5 C 20,2 C 20,2 C 2,1 C 45 % 35 % 1019,9 hPa 0,0 l/m 0,0 km/h (0 Bft) N 0,00 h 5,8 C 20,2 C 0,0 km/h (0 Bft)
09.05.2023 13:00 19,5 C 15,1 C 20,1 C 20,2 C 20,2 C 0,8 C 39 % 32 % 1019,0 hPa 0,0 l/m 0,0 km/h (0 Bft) N 0,00 h 5,2 C 20,2 C 0,0 km/h (0 Bft)
09.05.2023 14:00 20,6 C 15,3 C 22,5 C 20,4 C 20,2 C 0,0 C 31 % 26 % 1018,3 hPa 0,0 l/m 0,0 km/h (0 Bft) N 0,00 h 2,8 C 20,2 C 0,0 km/h (0 Bft)
09.05.2023 15:00 20,3 C 15,6 C 20,6 C 20,4 C 20,2 C 0,1 C 35 % 29 % 1017,2 hPa 0,0 l/m 0,0 km/h (0 Bft) N 0,00 h 4,4 C 20,2 C 0,0 km/h (0 Bft)
09.05.2023 16:00 19,7 C 15,8 C 19,9 C 21,4 C 21,4 C 1,7 C 36 % 30 % 1016,6 hPa 0,0 l/m 1,7 km/h (1 Bft) O-NO 0,33 h 4,3 C 21,4 C 2,3 km/h (1 Bft)
09.05.2023 17:00 19,4 C 16,2 C 19,7 C 22,2 C 22,2 C 2,8 C 39 % 32 % 1016,5 hPa 0,0 l/m 5,2 km/h (1 Bft) O-NO 0,08 h 5,2 C 22,2 C 7,7 km/h (2 Bft)
09.05.2023 18:00 19,0 C 16,4 C 18,3 C 21,3 C 21,3 C 2,3 C 42 % 34 % 1015,9 hPa 0,0 l/m 4,8 km/h (1 Bft) NO 0,00 h 5,7 C 21,3 C 8,3 km/h (2 Bft)
09.05.2023 19:00 17,8 C 16,4 C 16,7 C 19,0 C 19,0 C 1,2 C 46 % 37 % 1015,0 hPa 0,0 l/m 4,1 km/h (1 Bft) NO 0,00 h 6,2 C 19,0 C 4,3 km/h (1 Bft)
09.05.2023 20:00 16,1 C 16,6 C 14,5 C 16,1 C 16,0 C 0,1 C 53 % 43 % 1014,6 hPa 0,0 l/m 2,8 km/h (1 Bft) O-NO 0,00 h 6,5 C 16,0 C 3,7 km/h (1 Bft)
09.05.2023 21:00 14,2 C 16,5 C 12,8 C 13,9 C 13,4 C 0,0 C 58 % 47 % 1014,3 hPa 0,0 l/m 3,7 km/h (1 Bft) O-NO 0,00 h 6,1 C 13,4 C 5,2 km/h (1 Bft)
09.05.2023 22:00 12,5 C 16,5 C 11,1 C 12,2 C 11,6 C 0,0 C 62 % 49 % 1013,8 hPa 0,0 l/m 1,1 km/h (0 Bft) NO 0,00 h 5,5 C 11,6 C 0,8 km/h (0 Bft)
09.05.2023 23:00 11,1 C 16,3 C 9,6 C 10,7 C 9,8 C 0,0 C 67 % 54 % 1013,8 hPa 0,0 l/m 0,0 km/h (0 Bft) N 0,00 h 5,1 C 9,8 C 0,0 km/h (0 Bft)
10.05.2023 00:00 11,7 C 16,2 C 10,1 C 11,4 C 10,8 C 0,0 C 66 % 53 % 1013,1 hPa 0,0 l/m 0,2 km/h (0 Bft) N 0,00 h 5,4 C 10,8 C 0,5 km/h (0 Bft)
10.05.2023 01:00 11,8 C 16,0 C 9,9 C 11,4 C 10,6 C 0,0 C 64 % 52 % 1012,6 hPa 0,0 l/m 0,1 km/h (0 Bft) N 0,00 h 5,2 C 10,6 C 0,0 km/h (0 Bft)
10.05.2023 02:00 11,6 C 15,9 C 10,0 C 11,2 C 10,5 C 0,0 C 65 % 53 % 1012,2 hPa 0,0 l/m 0,0 km/h (0 Bft) N 0,00 h 5,2 C 10,5 C 0,0 km/h (0 Bft)
10.05.2023 03:00 10,6 C 15,7 C 8,8 C 10,2 C 9,5 C 0,0 C 67 % 54 % 1011,8 hPa 0,0 l/m 0,0 km/h (0 Bft) N 0,00 h 4,7 C 9,5 C 0,0 km/h (0 Bft)
10.05.2023 04:00 9,2 C 15,7 C 7,6 C 8,9 C 8,2 C 0,0 C 72 % 59 % 1011,7 hPa 0,0 l/m 0,0 km/h (0 Bft) N 0,00 h 4,4 C 8,2 C 0,0 km/h (0 Bft)
10.05.2023 05:00 7,8 C 15,6 C 6,5 C 7,5 C 6,8 C 0,0 C 76 % 64 % 1011,5 hPa 0,0 l/m 0,0 km/h (0 Bft) N 0,00 h 3,8 C 6,8 C 0,0 km/h (0 Bft)
10.05.2023 06:00 8,4 C 15,4 C 8,2 C 9,1 C 9,1 C 0,7 C 79 % 64 % 1011,7 hPa 0,0 l/m 0,0 km/h (0 Bft) N 0,00 h 5,0 C 9,1 C 0,0 km/h (0 Bft)
10.05.2023 07:00 12,9 C 15,2 C 13,8 C 19,7 C 19,7 C 6,8 C 69 % 52 % 1011,8 hPa 0,0 l/m 0,4 km/h (0 Bft) N 0,92 h 7,3 C 19,7 C 0,7 km/h (0 Bft)
10.05.2023 08:00 15,1 C 15,2 C 14,7 C 21,1 C 21,1 C 6,0 C 62 % 49 % 1011,7 hPa 0,0 l/m 0,3 km/h (0 Bft) N 0,27 h 7,9 C 21,1 C 1,4 km/h (1 Bft)
10.05.2023 09:00 16,7 C 15,2 C 15,6 C 20,7 C 20,7 C 4,0 C 59 % 50 % 1012,1 hPa 0,0 l/m 0,1 km/h (0 Bft) N 1,12 h 8,7 C 20,7 C 0,0 km/h (0 Bft)
10.05.2023 10:00 16,8 C 15,4 C 16,6 C 20,4 C 20,4 C 3,6 C 59 % 49 % 1012,4 hPa 0,0 l/m 0,0 km/h (0 Bft) N 0,83 h 8,8 C 20,4 C 0,0 km/h (0 Bft)
10.05.2023 11:00 14,2 C 15,8 C 14,2 C 11,1 C 3,4 C 0,8 C 75 % 68 % 1013,4 hPa 0,0 l/m 0,0 km/h (0 Bft) N 0,17 h 9,8 C 3,4 C 0,0 km/h (0 Bft)
10.05.2023 12:00 13,3 C 16,2 C 12,9 C 8,8 C 0,0 C 0,0 C 82 % 80 % 1013,9 hPa 0,7 l/m 0,0 km/h (0 Bft) N 0,00 h 10,3 C 0,0 C 0,0 km/h (0 Bft)
10.05.2023 13:00 13,2 C 16,2 C 13,9 C 13,1 C 11,0 C 1,0 C 86 % 89 % 1014,1 hPa 0,7 l/m 0,0 km/h (0 Bft) N 0,00 h 11,0 C 11,0 C 0,0 km/h (0 Bft)
10.05.2023 14:00 14,9 C 16,3 C 15,1 C 17,0 C 17,0 C 2,1 C 87 % 84 % 1014,3 hPa 0,0 l/m 0,0 km/h (0 Bft) N 0,00 h 12,7 C 17,0 C 0,0 km/h (0 Bft)
10.05.2023 15:00 15,4 C 16,4 C 15,5 C 17,8 C 17,8 C 2,4 C 85 % 81 % 1014,0 hPa 0,0 l/m 0,0 km/h (0 Bft) N 0,00 h 12,8 C 17,8 C 0,0 km/h (0 Bft)
10.05.2023 16:00 15,6 C 16,3 C 15,5 C 16,6 C 16,6 C 0,9 C 83 % 82 % 1013,9 hPa 0,0 l/m 0,1 km/h (0 Bft) N 0,00 h 12,8 C 16,6 C 0,0 km/h (0 Bft)
10.05.2023 17:00 15,1 C 16,4 C 14,8 C 15,0 C 14,7 C 0,0 C 84 % 83 % 1013,7 hPa 0,0 l/m 0,0 km/h (0 Bft) N 0,00 h 12,4 C 14,7 C 0,0 km/h (0 Bft)
10.05.2023 18:00 14,7 C 16,6 C 14,0 C 14,4 C 13,8 C 0,0 C 85 % 87 % 1013,7 hPa 0,0 l/m 0,0 km/h (0 Bft) N 0,00 h 12,1 C 13,8 C 0,0 km/h (0 Bft)
10.05.2023 19:00 14,3 C 16,6 C 13,4 C 14,0 C 13,4 C 0,0 C 86 % 90 % 1013,9 hPa 0,7 l/m 0,0 km/h (0 Bft) N 0,00 h 11,9 C 13,4 C 0,0 km/h (0 Bft)
10.05.2023 20:00 13,9 C 16,5 C 13,0 C 13,6 C 13,1 C 0,0 C 87 % 90 % 1014,5 hPa 0,0 l/m 0,0 km/h (0 Bft) N 0,00 h 11,6 C 13,1 C 0,0 km/h (0 Bft)
10.05.2023 21:00 13,4 C 16,5 C 12,8 C 13,2 C 12,8 C 0,0 C 88 % 90 % 1014,6 hPa 0,7 l/m 0,0 km/h (0 Bft) N 0,00 h 11,4 C 12,8 C 0,0 km/h (0 Bft)
10.05.2023 22:00 13,0 C 16,5 C 12,4 C 12,8 C 12,6 C 0,0 C 88 % 90 % 1014,7 hPa 0,0 l/m 0,0 km/h (0 Bft) N 0,00 h 11,0 C 12,6 C 0,0 km/h (0 Bft)
10.05.2023 23:00 12,7 C 16,5 C 12,3 C 12,6 C 12,4 C 0,0 C 88 % 90 % 1014,6 hPa 0,7 l/m 0,0 km/h (0 Bft) N 0,00 h 10,7 C 12,4 C 0,0 km/h (0 Bft)
11.05.2023 00:00 12,4 C 16,4 C 12,1 C 12,3 C 12,2 C 0,0 C 88 % 90 % 1014,3 hPa 0,0 l/m 0,0 km/h (0 Bft) N 0,00 h 10,4 C 12,2 C 0,0 km/h (0 Bft)
11.05.2023 01:00 12,1 C 16,4 C 12,0 C 12,1 C 12,1 C 0,0 C 88 % 90 % 1014,0 hPa 0,0 l/m 0,0 km/h (0 Bft) N 0,00 h 10,2 C 12,1 C 0,0 km/h (0 Bft)
11.05.2023 02:00 11,9 C 16,3 C 11,9 C 12,0 C 12,0 C 0,1 C 88 % 90 % 1013,8 hPa 0,0 l/m 0,0 km/h (0 Bft) N 0,00 h 10,0 C 12,0 C 0,0 km/h (0 Bft)
11.05.2023 03:00 11,7 C 16,3 C 11,9 C 11,9 C 11,9 C 0,3 C 88 % 90 % 1013,7 hPa 0,0 l/m 0,0 km/h (0 Bft) N 0,00 h 9,7 C 11,9 C 0,0 km/h (0 Bft)
11.05.2023 04:00 11,5 C 16,2 C 11,9 C 11,9 C 11,9 C 0,4 C 88 % 90 % 1013,5 hPa 0,0 l/m 0,0 km/h (0 Bft) N 0,00 h 9,6 C 11,9 C 0,0 km/h (0 Bft)
11.05.2023 05:00 11,4 C 16,2 C 12,1 C 12,3 C 12,3 C 0,9 C 89 % 90 % 1013,4 hPa 0,0 l/m 0,0 km/h (0 Bft) N 0,33 h 9,6 C 12,3 C 0,0 km/h (0 Bft)
11.05.2023 06:00 11,5 C 16,2 C 12,4 C 12,9 C 12,9 C 1,4 C 88 % 90 % 1013,5 hPa 0,0 l/m 0,7 km/h (0 Bft) NO 0,58 h 9,7 C 12,9 C 1,2 km/h (1 Bft)
11.05.2023 07:00 13,9 C 16,0 C 13,4 C 18,5 C 18,5 C 4,6 C 86 % 90 % 1013,6 hPa 0,0 l/m 2,2 km/h (1 Bft) NO 1,00 h 11,7 C 18,5 C 3,3 km/h (1 Bft)
11.05.2023 08:00 16,0 C 15,9 C 14,8 C 19,6 C 19,6 C 3,6 C 78 % 84 % 1013,4 hPa 0,0 l/m 1,7 km/h (1 Bft) O-NO 0,75 h 12,2 C 19,6 C 2,2 km/h (1 Bft)
11.05.2023 09:00 16,7 C 15,9 C 15,8 C 20,0 C 20,0 C 3,3 C 76 % 78 % 1013,6 hPa 0,0 l/m 1,8 km/h (1 Bft) N-NO 0,42 h 12,4 C 20,0 C 2,3 km/h (1 Bft)
11.05.2023 10:00 18,5 C 15,9 C 17,4 C 22,0 C 22,0 C 3,6 C 69 % 73 % 1013,9 hPa 0,0 l/m 0,7 km/h (0 Bft) SW 0,58 h 12,7 C 22,0 C 0,4 km/h (0 Bft)
11.05.2023 11:00 19,6 C 16,2 C 19,6 C 24,2 C 24,2 C 4,6 C 63 % 68 % 1013,4 hPa 0,0 l/m 2,2 km/h (1 Bft) N-NO 0,92 h 12,4 C 24,2 C 2,4 km/h (1 Bft)
11.05.2023 12:00 21,1 C 16,2 C 20,6 C 26,0 C 26,0 C 4,9 C 56 % 61 % 1013,2 hPa 0,0 l/m 1,4 km/h (1 Bft) O-NO 1,00 h 11,9 C 26,0 C 2,3 km/h (1 Bft)
11.05.2023 13:00 20,0 C 16,4 C 19,7 C 22,4 C 22,4 C 2,4 C 57 % 55 % 1013,6 hPa 0,0 l/m 1,1 km/h (1 Bft) NO 0,17 h 11,2 C 22,4 C 1,7 km/h (1 Bft)
11.05.2023 14:00 19,5 C 16,6 C 19,4 C 21,7 C 21,7 C 2,2 C 57 % 55 % 1013,8 hPa 0,0 l/m 1,2 km/h (1 Bft) O-NO 0,00 h 10,8 C 21,7 C 2,1 km/h (1 Bft)
11.05.2023 15:00 18,9 C 16,7 C 18,8 C 20,5 C 20,5 C 1,6 C 57 % 53 % 1014,0 hPa 0,0 l/m 3,5 km/h (1 Bft) NO 0,00 h 10,1 C 20,5 C 5,5 km/h (1 Bft)
11.05.2023 16:00 18,8 C 16,8 C 18,5 C 20,2 C 20,2 C 1,4 C 55 % 53 % 1013,7 hPa 0,0 l/m 1,5 km/h (1 Bft) NO 0,00 h 9,6 C 20,2 C 1,7 km/h (1 Bft)
11.05.2023 17:00 18,8 C 16,8 C 18,0 C 19,7 C 19,7 C 0,9 C 53 % 51 % 1013,6 hPa 0,0 l/m 0,9 km/h (0 Bft) NO 0,00 h 8,9 C 19,7 C 1,5 km/h (1 Bft)
11.05.2023 18:00 18,1 C 16,8 C 16,9 C 18,4 C 18,4 C 0,3 C 53 % 52 % 1014,1 hPa 0,0 l/m 0,2 km/h (0 Bft) N 0,00 h 8,4 C 18,4 C 0,7 km/h (0 Bft)
11.05.2023 19:00 17,2 C 16,7 C 15,9 C 17,2 C 17,0 C 0,0 C 54 % 50 % 1014,8 hPa 0,0 l/m 1,3 km/h (1 Bft) O-NO 0,00 h 7,7 C 17,0 C 2,4 km/h (1 Bft)
11.05.2023 20:00 16,1 C 16,7 C 15,1 C 16,0 C 15,8 C 0,0 C 58 % 51 % 1015,5 hPa 0,0 l/m 1,8 km/h (1 Bft) O-NO 0,00 h 7,9 C 15,8 C 2,5 km/h (1 Bft)
11.05.2023 21:00 15,3 C 16,6 C 14,2 C 15,2 C 15,0 C 0,0 C 62 % 54 % 1015,8 hPa 0,0 l/m 0,5 km/h (0 Bft) N 0,00 h 8,0 C 15,0 C 0,7 km/h (0 Bft)
11.05.2023 22:00 14,3 C 16,6 C 13,2 C 14,2 C 14,0 C 0,0 C 66 % 59 % 1016,2 hPa 0,0 l/m 0,1 km/h (0 Bft) N 0,00 h 8,0 C 14,0 C 0,3 km/h (0 Bft)
11.05.2023 23:00 13,3 C 16,4 C 12,0 C 13,1 C 12,6 C 0,0 C 68 % 61 % 1016,4 hPa 0,0 l/m 0,1 km/h (0 Bft) N 0,00 h 7,6 C 12,6 C 0,3 km/h (0 Bft)
12.05.2023 00:00 12,3 C 16,5 C 11,4 C 12,0 C 11,5 C 0,0 C 74 % 68 % 1016,7 hPa 0,0 l/m 0,0 km/h (0 Bft) N 0,00 h 7,8 C 11,5 C 0,0 km/h (0 Bft)
12.05.2023 01:00 11,7 C 16,4 C 11,0 C 11,6 C 11,3 C 0,0 C 78 % 71 % 1016,5 hPa 0,0 l/m 0,0 km/h (0 Bft) N 0,00 h 8,0 C 11,3 C 0,0 km/h (0 Bft)
12.05.2023 02:00 11,2 C 16,3 C 10,7 C 11,0 C 10,7 C 0,0 C 81 % 72 % 1016,2 hPa 0,0 l/m 0,0 km/h (0 Bft) N 0,00 h 8,0 C 10,7 C 0,0 km/h (0 Bft)
12.05.2023 03:00 10,9 C 16,3 C 10,4 C 10,7 C 10,4 C 0,0 C 83 % 75 % 1016,4 hPa 0,0 l/m 0,0 km/h (0 Bft) N 0,00 h 8,1 C 10,4 C 0,0 km/h (0 Bft)
12.05.2023 04:00 10,4 C 16,2 C 9,9 C 10,2 C 9,8 C 0,0 C 84 % 76 % 1016,8 hPa 0,0 l/m 0,0 km/h (0 Bft) N 0,00 h 7,9 C 9,8 C 0,0 km/h (0 Bft)
12.05.2023 05:00 10,3 C 16,2 C 10,0 C 10,3 C 10,1 C 0,0 C 86 % 78 % 1016,8 hPa 0,0 l/m 0,0 km/h (0 Bft) N 0,00 h 8,0 C 10,1 C 0,0 km/h (0 Bft)
12.05.2023 06:00 10,8 C 16,0 C 10,8 C 11,5 C 11,5 C 0,7 C 87 % 78 % 1016,8 hPa 0,0 l/m 0,0 km/h (0 Bft) N 0,00 h 8,7 C 11,5 C 0,0 km/h (0 Bft)
12.05.2023 07:00 12,3 C 15,8 C 12,9 C 14,7 C 14,7 C 2,4 C 87 % 76 % 1017,2 hPa 0,0 l/m 0,0 km/h (0 Bft) N 0,00 h 10,1 C 14,7 C 0,0 km/h (0 Bft)
12.05.2023 08:00 15,2 C 15,7 C 14,8 C 19,5 C 19,5 C 4,3 C 79 % 69 % 1017,4 hPa 0,0 l/m 0,0 km/h (0 Bft) N 1,00 h 11,5 C 19,5 C 0,0 km/h (0 Bft)
12.05.2023 09:00 17,0 C 15,7 C 16,4 C 20,6 C 20,6 C 3,6 C 68 % 61 % 1017,4 hPa 0,0 l/m 0,3 km/h (0 Bft) O-NO 0,58 h 11,0 C 20,6 C 1,1 km/h (1 Bft)
12.05.2023 11:00 18,9 C 15,8 C 18,1 C 21,2 C 21,2 C 2,2 C 57 % 50 % 1017,1 hPa 0,0 l/m 1,8 km/h (1 Bft) O-NO 0,00 h 10,2 C 21,2 C 2,9 km/h (1 Bft)
12.05.2023 12:00 19,3 C 16,0 C 19,1 C 21,6 C 21,6 C 2,3 C 52 % 46 % 1017,1 hPa 0,0 l/m 3,9 km/h (1 Bft) O-NO 0,00 h 9,1 C 21,6 C 6,9 km/h (2 Bft)
12.05.2023 13:00 19,9 C 16,1 C 19,5 C 22,5 C 22,5 C 2,6 C 50 % 47 % 1017,2 hPa 0,0 l/m 1,8 km/h (1 Bft) O-NO 0,25 h 9,1 C 22,5 C 2,8 km/h (1 Bft)
12.05.2023 14:00 19,9 C 16,3 C 19,7 C 22,3 C 22,3 C 2,5 C 50 % 48 % 1017,4 hPa 0,0 l/m 1,5 km/h (1 Bft) NO 0,48 h 9,2 C 22,3 C 2,2 km/h (1 Bft)
12.05.2023 15:00 20,2 C 16,3 C 20,1 C 22,8 C 22,8 C 2,6 C 47 % 45 % 1017,6 hPa 0,0 l/m 3,2 km/h (1 Bft) O-NO 0,17 h 8,6 C 22,8 C 4,1 km/h (1 Bft)
12.05.2023 16:00 19,8 C 16,5 C 19,5 C 21,6 C 21,6 C 1,8 C 49 % 46 % 1017,5 hPa 0,0 l/m 2,1 km/h (1 Bft) O-NO 0,08 h 8,7 C 21,6 C 3,3 km/h (1 Bft)
12.05.2023 17:00 19,6 C 16,6 C 19,1 C 21,1 C 21,1 C 1,5 C 49 % 44 % 1017,7 hPa 0,0 l/m 2,6 km/h (1 Bft) O-NO 0,00 h 8,5 C 21,1 C 3,2 km/h (1 Bft)
12.05.2023 18:00 18,7 C 16,7 C 17,9 C 19,7 C 19,7 C 1,0 C 55 % 52 % 1017,7 hPa 0,0 l/m 0,4 km/h (0 Bft) NO 0,00 h 9,6 C 19,7 C 1,0 km/h (0 Bft)
12.05.2023 19:00 17,9 C 16,7 C 16,8 C 18,1 C 18,1 C 0,2 C 58 % 53 % 1017,9 hPa 0,0 l/m 0,6 km/h (0 Bft) NO 0,00 h 9,6 C 18,1 C 1,0 km/h (0 Bft)
12.05.2023 20:00 16,3 C 16,7 C 14,8 C 16,1 C 15,7 C 0,0 C 60 % 54 % 1018,3 hPa 0,0 l/m 0,0 km/h (0 Bft) N 0,00 h 8,6 C 15,7 C 0,0 km/h (0 Bft)
12.05.2023 21:00 14,8 C 16,7 C 13,5 C 14,6 C 14,1 C 0,0 C 66 % 59 % 1018,7 hPa 0,0 l/m 0,0 km/h (0 Bft) N 0,00 h 8,5 C 14,1 C 0,0 km/h (0 Bft)
12.05.2023 22:00 13,4 C 16,7 C 12,2 C 13,1 C 12,5 C 0,0 C 72 % 65 % 1019,2 hPa 0,0 l/m 0,0 km/h (0 Bft) N 0,00 h 8,5 C 12,5 C 0,0 km/h (0 Bft)
12.05.2023 23:00 12,1 C 16,6 C 10,8 C 11,7 C 10,8 C 0,0 C 76 % 68 % 1019,5 hPa 0,0 l/m 0,0 km/h (0 Bft) N 0,00 h 8,0 C 10,8 C 0,0 km/h (0 Bft)
13.05.2023 00:00 10,4 C 16,7 C 9,2 C 9,9 C 8,9 C 0,0 C 80 % 72 % 1019,5 hPa 0,0 l/m 0,0 km/h (0 Bft) N 0,00 h 7,0 C 8,9 C 0,0 km/h (0 Bft)
13.05.2023 01:00 9,1 C 16,6 C 8,0 C 8,6 C 7,7 C 0,0 C 83 % 74 % 1020,1 hPa 0,0 l/m 0,0 km/h (0 Bft) N 0,00 h 6,3 C 7,7 C 0,0 km/h (0 Bft)
13.05.2023 02:00 8,3 C 16,5 C 7,5 C 7,9 C 7,2 C 0,0 C 85 % 75 % 1020,1 hPa 0,0 l/m 0,0 km/h (0 Bft) N 0,00 h 5,9 C 7,2 C 0,0 km/h (0 Bft)
13.05.2023 03:00 6,9 C 16,1 C 6,0 C 6,5 C 5,8 C 0,0 C 86 % 76 % 1020,1 hPa 0,0 l/m 0,0 km/h (0 Bft) N 0,00 h 4,7 C 5,8 C 0,0 km/h (0 Bft)
13.05.2023 04:00 6,1 C 15,9 C 5,4 C 5,7 C 5,1 C 0,0 C 87 % 76 % 1020,2 hPa 0,0 l/m 0,0 km/h (0 Bft) N 0,00 h 4,1 C 5,1 C 0,0 km/h (0 Bft)
13.05.2023 05:00 5,9 C 15,7 C 5,7 C 5,9 C 5,7 C 0,1 C 88 % 77 % 1020,5 hPa 0,0 l/m 0,0 km/h (0 Bft) N 0,00 h 4,0 C 5,7 C 0,0 km/h (0 Bft)
13.05.2023 06:00 7,3 C 15,5 C 8,6 C 15,2 C 15,2 C 7,9 C 88 % 80 % 1021,2 hPa 0,0 l/m 0,0 km/h (0 Bft) N 0,92 h 5,4 C 15,2 C 0,0 km/h (0 Bft)
13.05.2023 07:00 11,6 C 15,2 C 11,5 C 23,2 C 23,2 C 11,7 C 87 % 77 % 1021,1 hPa 0,0 l/m 0,0 km/h (0 Bft) N 1,00 h 9,4 C 23,2 C 0,0 km/h (0 Bft)
13.05.2023 08:00 15,3 C 15,1 C 14,1 C 19,4 C 19,4 C 4,2 C 70 % 65 % 1021,3 hPa 0,0 l/m 2,6 km/h (1 Bft) NO 0,33 h 9,8 C 19,4 C 2,9 km/h (1 Bft)
13.05.2023 09:00 15,8 C 15,2 C 14,8 C 18,2 C 18,2 C 2,4 C 66 % 59 % 1021,0 hPa 0,0 l/m 1,1 km/h (1 Bft) NO 0,00 h 9,5 C 18,2 C 1,7 km/h (1 Bft)
13.05.2023 10:00 16,3 C 15,3 C 15,3 C 19,4 C 19,4 C 3,2 C 64 % 56 % 1020,8 hPa 0,0 l/m 1,6 km/h (1 Bft) O-NO 0,33 h 9,5 C 19,4 C 3,0 km/h (1 Bft)
13.05.2023 11:00 17,2 C 15,4 C 16,7 C 19,3 C 19,3 C 2,2 C 60 % 51 % 1021,1 hPa 0,0 l/m 3,8 km/h (1 Bft) O-NO 0,00 h 9,2 C 19,3 C 5,1 km/h (1 Bft)
13.05.2023 12:00 17,9 C 15,5 C 17,7 C 21,1 C 21,1 C 3,1 C 58 % 47 % 1020,6 hPa 0,0 l/m 3,7 km/h (1 Bft) O-NO 0,50 h 9,4 C 21,1 C 5,6 km/h (1 Bft)
13.05.2023 13:00 17,6 C 15,7 C 17,3 C 19,1 C 19,1 C 1,5 C 58 % 48 % 1021,0 hPa 0,0 l/m 4,7 km/h (1 Bft) O-NO 0,08 h 9,2 C 19,1 C 5,7 km/h (1 Bft)
13.05.2023 14:00 16,4 C 15,9 C 15,8 C 16,9 C 16,7 C 0,6 C 63 % 56 % 1021,2 hPa 0,0 l/m 1,2 km/h (1 Bft) N-NO 0,00 h 9,2 C 16,7 C 1,6 km/h (1 Bft)
13.05.2023 15:00 17,5 C 16,0 C 18,3 C 22,1 C 22,1 C 4,6 C 60 % 52 % 1021,2 hPa 0,0 l/m 4,9 km/h (1 Bft) NO 0,83 h 9,7 C 22,1 C 9,2 km/h (2 Bft)
13.05.2023 16:00 17,1 C 16,1 C 17,7 C 19,8 C 19,8 C 2,8 C 60 % 49 % 1021,1 hPa 0,0 l/m 5,7 km/h (1 Bft) NO 0,17 h 9,2 C 19,8 C 7,7 km/h (2 Bft)
13.05.2023 17:00 16,7 C 16,2 C 17,0 C 18,6 C 18,6 C 2,0 C 61 % 51 % 1021,1 hPa 0,0 l/m 4,3 km/h (1 Bft) NO 0,00 h 9,1 C 18,6 C 6,7 km/h (2 Bft)
13.05.2023 18:00 16,2 C 16,3 C 16,0 C 17,4 C 17,4 C 1,2 C 62 % 53 % 1020,8 hPa 0,0 l/m 3,4 km/h (1 Bft) NO 0,00 h 8,8 C 17,4 C 4,2 km/h (1 Bft)
13.05.2023 19:00 15,8 C 16,4 C 15,2 C 16,2 C 16,2 C 0,5 C 63 % 54 % 1020,4 hPa 0,0 l/m 2,1 km/h (1 Bft) O-NO 0,00 h 8,8 C 16,2 C 3,3 km/h (1 Bft)
13.05.2023 20:00 15,0 C 16,4 C 14,6 C 15,3 C 15,3 C 0,3 C 66 % 54 % 1020,5 hPa 0,0 l/m 0,9 km/h (0 Bft) NO 0,33 h 8,7 C 15,3 C 1,5 km/h (1 Bft)
13.05.2023 21:00 14,3 C 16,4 C 13,8 C 14,2 C 14,1 C 0,0 C 70 % 58 % 1021,1 hPa 0,0 l/m 0,5 km/h (0 Bft) O-NO 0,00 h 8,9 C 14,1 C 0,4 km/h (0 Bft)
13.05.2023 22:00 13,3 C 16,3 C 12,5 C 13,1 C 12,7 C 0,0 C 73 % 63 % 1021,1 hPa 0,0 l/m 0,0 km/h (0 Bft) N 0,00 h 8,6 C 12,7 C 0,0 km/h (0 Bft)
13.05.2023 23:00 12,5 C 16,3 C 11,8 C 12,3 C 11,8 C 0,0 C 76 % 66 % 1021,0 hPa 0,0 l/m 0,0 km/h (0 Bft) N 0,00 h 8,4 C 11,8 C 0,0 km/h (0 Bft)
14.05.2023 00:00 11,5 C 16,4 C 10,8 C 11,2 C 10,7 C 0,0 C 79 % 70 % 1020,8 hPa 0,0 l/m 0,0 km/h (0 Bft) N 0,00 h 8,1 C 10,7 C 0,0 km/h (0 Bft)
14.05.2023 01:00 10,5 C 16,3 C 9,8 C 10,2 C 9,5 C 0,0 C 82 % 72 % 1020,9 hPa 0,0 l/m 0,0 km/h (0 Bft) N 0,00 h 7,5 C 9,5 C 0,0 km/h (0 Bft)
14.05.2023 02:00 9,6 C 16,3 C 8,8 C 9,2 C 8,5 C 0,0 C 83 % 74 % 1020,0 hPa 0,0 l/m 0,0 km/h (0 Bft) N 0,00 h 6,9 C 8,5 C 0,0 km/h (0 Bft)
14.05.2023 03:00 8,7 C 16,3 C 7,9 C 8,4 C 7,7 C 0,0 C 85 % 76 % 1019,9 hPa 0,0 l/m 0,0 km/h (0 Bft) N 0,00 h 6,3 C 7,7 C 0,0 km/h (0 Bft)
14.05.2023 04:00 8,0 C 16,2 C 7,4 C 7,7 C 7,0 C 0,0 C 86 % 76 % 1019,6 hPa 0,0 l/m 0,0 km/h (0 Bft) N 0,00 h 5,8 C 7,0 C 0,0 km/h (0 Bft)
14.05.2023 05:00 7,6 C 16,0 C 7,1 C 7,4 C 6,9 C 0,0 C 87 % 77 % 1019,5 hPa 0,0 l/m 0,0 km/h (0 Bft) N 0,00 h 5,5 C 6,9 C 0,0 km/h (0 Bft)
14.05.2023 06:00 7,8 C 15,8 C 7,8 C 7,9 C 7,8 C 0,1 C 88 % 78 % 1019,6 hPa 0,0 l/m 0,0 km/h (0 Bft) N 0,00 h 5,9 C 7,8 C 0,0 km/h (0 Bft)
14.05.2023 07:00 9,1 C 15,5 C 10,5 C 16,9 C 16,9 C 7,9 C 88 % 77 % 1019,2 hPa 0,0 l/m 0,0 km/h (0 Bft) N 0,83 h 7,2 C 16,9 C 0,0 km/h (0 Bft)
14.05.2023 08:00 13,5 C 15,4 C 12,9 C 20,3 C 20,3 C 6,8 C 82 % 69 % 1019,4 hPa 0,0 l/m 0,3 km/h (0 Bft) N 1,00 h 10,6 C 20,3 C 0,5 km/h (0 Bft)
14.05.2023 09:00 16,3 C 15,4 C 14,6 C 20,7 C 20,7 C 4,4 C 70 % 63 % 1018,8 hPa 0,0 l/m 1,6 km/h (1 Bft) O-NO 0,67 h 10,7 C 20,7 C 3,5 km/h (1 Bft)
14.05.2023 10:00 16,9 C 15,5 C 16,3 C 19,8 C 19,8 C 2,9 C 65 % 57 % 1018,6 hPa 0,0 l/m 1,2 km/h (1 Bft) O-NO 0,33 h 10,4 C 19,8 C 1,8 km/h (1 Bft)
14.05.2023 11:00 17,4 C 15,6 C 17,1 C 20,1 C 20,1 C 2,7 C 62 % 52 % 1018,0 hPa 0,0 l/m 1,6 km/h (1 Bft) NO 0,08 h 10,0 C 20,1 C 2,2 km/h (1 Bft)
14.05.2023 12:00 17,4 C 15,8 C 17,5 C 19,9 C 19,9 C 2,6 C 60 % 50 % 1017,4 hPa 0,0 l/m 2,3 km/h (1 Bft) O-NO 0,00 h 9,6 C 19,9 C 3,0 km/h (1 Bft)
14.05.2023 13:00 17,5 C 15,8 C 17,4 C 20,3 C 20,3 C 2,8 C 62 % 51 % 1016,4 hPa 0,0 l/m 1,1 km/h (1 Bft) O-NO 0,33 h 10,2 C 20,3 C 2,1 km/h (1 Bft)
14.05.2023 14:00 18,8 C 16,0 C 20,0 C 24,8 C 24,8 C 6,0 C 61 % 48 % 1016,2 hPa 0,0 l/m 0,7 km/h (0 Bft) O-NO 0,92 h 11,0 C 24,8 C 1,5 km/h (1 Bft)
14.05.2023 15:00 18,6 C 16,1 C 18,7 C 21,5 C 21,5 C 2,9 C 58 % 46 % 1015,8 hPa 0,0 l/m 3,5 km/h (1 Bft) O-NO 0,25 h 10,0 C 21,5 C 4,9 km/h (1 Bft)
14.05.2023 16:00 17,8 C 16,2 C 17,6 C 19,0 C 19,0 C 1,2 C 60 % 48 % 1015,2 hPa 0,0 l/m 0,6 km/h (0 Bft) NO 0,00 h 10,0 C 19,0 C 0,6 km/h (0 Bft)
14.05.2023 17:00 15,5 C 16,6 C 14,5 C 15,3 C 14,5 C 0,2 C 68 % 63 % 1015,2 hPa 0,7 l/m 0,9 km/h (0 Bft) O 0,00 h 9,6 C 14,5 C 2,0 km/h (1 Bft)
14.05.2023 18:00 13,8 C 16,8 C 13,1 C 13,4 C 12,7 C 0,0 C 80 % 76 % 1015,3 hPa 0,0 l/m 0,0 km/h (0 Bft) N 0,00 h 10,3 C 12,7 C 0,0 km/h (0 Bft)
14.05.2023 19:00 13,9 C 16,9 C 13,4 C 14,0 C 13,8 C 0,2 C 83 % 79 % 1015,0 hPa 0,0 l/m 0,0 km/h (0 Bft) N 0,00 h 11,1 C 13,8 C 0,0 km/h (0 Bft)
14.05.2023 20:00 13,5 C 16,9 C 12,7 C 13,6 C 13,5 C 0,1 C 83 % 77 % 1014,9 hPa 0,0 l/m 0,0 km/h (0 Bft) N 0,00 h 10,7 C 13,5 C 0,0 km/h (0 Bft)
14.05.2023 21:00 12,9 C 16,9 C 11,9 C 12,6 C 11,9 C 0,0 C 84 % 79 % 1015,0 hPa 0,0 l/m 0,0 km/h (0 Bft) N 0,00 h 10,2 C 11,9 C 0,0 km/h (0 Bft)
14.05.2023 22:00 12,0 C 16,9 C 10,8 C 11,6 C 10,8 C 0,0 C 85 % 80 % 1014,7 hPa 0,0 l/m 0,0 km/h (0 Bft) N 0,00 h 9,5 C 10,8 C 0,0 km/h (0 Bft)
14.05.2023 23:00 11,1 C 16,8 C 10,3 C 10,8 C 10,2 C 0,0 C 86 % 81 % 1014,2 hPa 0,0 l/m 0,0 km/h (0 Bft) N 0,00 h 8,9 C 10,2 C 0,0 km/h (0 Bft)
Min-Datum _ 08.05.23 08.05.23 08.05.23 08.05.23 10.05.23 08.05.23 09.05.23 09.05.23 10.05.23 - 08.05.23 - - 09.05.23 10.05.23 08.05.23
_ Min-Zeit 06:00 07:20 05:35 05:50 11:10 00:00 14:25 14:15 05:05 - 01:00 - - 06:22 11:10 00:30
Minimum _ 4,6 C 13,5 C 4,3 C 4,3 C 0,0 C 0,0 C 30 % 25 % 1011,4 hPa - 0,0 km/h (0 Bft) - - 2,1 C 0,0 C 0,0 km/h (0 Bft)
Max-Datum _ 11.05.23 14.05.23 09.05.23 11.05.23 11.05.23 13.05.23 11.05.23 10.05.23 08.05.23 10.05.23 13.05.23 - 12.05.23 10.05.23 11.05.23 08.05.23
_ Max-Zeit 12:35 19:15 14:30 12:30 12:30 07:00 04:05 13:05 10:45 12:30 15:25 - 14:42 16:00 12:30 12:55
Maximum _ 21,8 C 17,0 C 22,8 C 27,4 C 27,4 C 13,4 C 89 % 90 % 1026,4 hPa 0,7 l/m 9,7 km/h
NO (2 Bft)
- 0,27 h 13,2 C 27,4 C 21,6 km/h
O-NO (4 Bft)
Durchschnitt _ 13,7 C 15,8 C 13,2 C 15,1 C 14,8 C 1,6 C 69 % 61 % 1018,2 hPa #4,1 l/m 1,1 km/h (1 Bft) O-NO #32:22 h 7,7 C 14,8 C 1,6 km/h (1 Bft)
2023 www.wetterstation-wechselburg.de